Relevés horaires Jungfraujoch (Suisse)


Relevés horaires à Jungfraujoch - Lundi 22 Déc. 2003
Heure UTC1 Température [°C] Vent [km/h] Hum. [%] Pres.4 [hPa] Visi. [Km] Nébu. [octa] Préc.5 [mm] Cond.
2m. Res. Ros. Dir.2 Vit. Moy. Raf.3
23:00 -25.1 -37 -27.8 ONO 20.4 -- -- 78 700 -- -- -- --
22:00 -24.9 -36.8 -27.6 ONO 20.4 -- -- 78 700 -- -- -- --
21:00 -24.9 -38.1 -27.6 ONO 25.9 40.7 70.4 78 700(-0.3/3h) -- -- -- --
20:00 -24.2 -38 -26.8 ONO 29.6 -- -- 79 700 -- -- -- --
19:00 -25.0 -39 -27.7 ONO 29.6 -- -- 78 700 -- -- -- --
18:00 -24.2 -38.3 -26.3 ONO 31.5 50.0 72.2 83 700(1.1/3h) 0 -- -- Légère neige continue
17:00 -23.1 -36.9 -25.6 ONO 31.5 -- -- 80 700 -- -- -- --
16:00 -22.3 -37.3 -24.7 ONO 40.7 -- -- 81 700 -- -- -- --
15:00 -21.7 -36 -24.1 ONO 37.0 50.0 72.2 81 700(0.1/3h) 0 -- -- Légère neige continue
13:00 -20.9 -34.9 -23.2 ONO 37.0 -- -- 82 700 -- -- -- --
12:00 -21.5 -35.1 -23.9 ONO 33.3 -- 66.7 81 700(0.6/3h) 0 -- -- Légère neige continue
11:00 -21.2 -33.7 -23.5 ONO 27.8 -- -- 82 700 -- -- -- --
10:00 -20.6 -33.3 -22.9 ONO 29.6 -- -- 82 700 -- -- -- --
09:00 -20.5 -32.1 -22.8 ONO 24.1 44.4 75.9 82 700(0.8/3h) 0 -- -- Neige modérée continue
08:00 -20.1 -31.6 -22.3 ONO 24.1 -- -- 82 700 -- -- -- --
07:00 -20.1 -32.6 -22.3 ONO 29.6 -- -- 82 700 -- -- -- --
06:00 -19.6 -32.6 -21.8 ONO 33.3 64.8 103.7 83 700(-1.2/3h) 0 -- -- Neige forte continue
05:00 -18.7 -31.7 -20.8 ONO 35.2 -- -- 83 700 -- -- -- --
04:00 -18.4 -30.4 -20.3 NO 29.6 -- -- 85 700 -- -- -- --
03:00 -17.9 -31.7 -19.9 ONO 42.6 64.8 103.7 84 700(-1.1/3h) -- -- -- --
02:00 -18.1 -32.4 -20.2 ONO 46.3 -- -- 83 700 -- -- -- --
01:00 -17.9 -33.8 -19.9 ONO 63.0 -- -- 84 700 -- -- -- --
00:00 -18.3 -32.9 -20.4 ONO 48.2 50.0 96.3 83 700(-0.6/3h) -- -- -- --

1 Coordinated Universal Time. Actuellement il est 02:00 locale et 00:00 UTC.

2 Le vent souffle depuis la direction indiquée vers la direction oposée.

3 Les rafales max. sont disponible 40 min après l'heure du relevé.

4 Pour les stations d'altitude (plus de 600m) le géopotentiel du niveau le plus proche de la pression obligatoire est indiqué.

5 Les stations disposant d'un diffuseur peuvent indiquer "trace". Cela signifie que des précipitations ont touchés le sol mais que la quantité est inférieure à 0.1 mm.

Copyright

Les données affichées sur cette page sont la propriété exclusive de Météo Suisse.

Récapitulatif de la journée
Température [°C] Vent [km/h] Ensoleillement4 [h] Precipitations totale5 [mm] Pression [Hpa]
Min1 Max.2 Moy.3 Max. Min Max.
-19.7 -19.2 52.1 103.7 0 h 0 min 0 700.0 700.0

1 Température minimale relevée entre 18:00 UTC la veille et 18:00 UTC le jour donné.

2 Température maximale relevée entre 06:00 UTC le jour donné et 06:00 UTC le lendemain.

3 Vent moyen de la journée basé sur les relevés horaires.

4 Ensoleillement en heures relevé entre 06:00 UTC la veille et 06:00 UTC le jour donné.

5 Précipitations totales tombées entre 06:00 UTC la jour donné et 06:00 UTC le lendemain.

Graphiques horaires